Time;durP1;ratioP1;P1;durP2;ratioP2;P2;SDS_P1;SDS_P2;PMS_P1;PMS_P2;Temp;Humidity;BMP_temperature;BMP_pressure;BME280_temperature;BME280_humidity;BME280_pressure;Samples;Min_cycle;Max_cycle;Signal;HPM_P1;HPM_P2
2022/01/06 00:00:32;;;;;;;8.15;4.50;;;;;;;1.64;76.37;96972.53;1736333;82;20997;-57
2022/01/06 00:03:01;;;;;;;10.60;4.87;;;;;;;1.66;75.90;96974.95;1712388;82;20971;-56
2022/01/06 00:05:28;;;;;;;10.45;4.15;;;;;;;1.68;76.38;96972.30;1712327;82;21050;-57
2022/01/06 00:07:55;;;;;;;7.03;3.40;;;;;;;1.68;75.91;96957.62;1712729;82;21006;-56
2022/01/06 00:10:23;;;;;;;8.48;3.62;;;;;;;1.68;76.12;96941.59;1711953;82;38715;-57
2022/01/06 00:25:54;;;;;;;6.42;3.05;;;;;;;1.68;74.99;96948.80;1704305;82;20963;-57
2022/01/06 00:28:21;;;;;;;6.17;2.98;;;;;;;1.66;75.37;96952.25;1712557;82;21332;-57
2022/01/06 00:30:48;;;;;;;6.00;2.50;;;;;;;1.63;74.95;96968.25;1712166;82;21058;-57
2022/01/06 00:33:15;;;;;;;6.78;2.22;;;;;;;1.61;75.02;96971.67;1735467;82;21048;-57
2022/01/06 00:35:42;;;;;;;1.75;1.20;;;;;;;1.60;75.02;96987.95;1734646;82;21415;-57
2022/01/06 00:38:09;;;;;;;6.40;2.58;;;;;;;1.65;74.57;96988.03;1712601;82;21002;-57
2022/01/06 00:40:36;;;;;;;6.55;2.70;;;;;;;1.62;75.09;96991.17;1734629;80;21518;-57
2022/01/06 00:43:04;;;;;;;5.75;2.72;;;;;;;1.58;75.21;96982.06;1737173;82;21064;-57
2022/01/06 00:45:31;;;;;;;3.92;2.95;;;;;;;1.58;75.00;96978.86;1737017;82;20997;-57
2022/01/06 00:47:59;;;;;;;5.22;3.45;;;;;;;1.57;75.09;96979.91;1736891;80;21010;-57
2022/01/06 00:50:25;;;;;;;5.15;2.15;;;;;;;1.58;75.03;96978.05;1755841;80;21009;-57
2022/01/06 00:52:52;;;;;;;4.50;2.22;;;;;;;1.58;75.21;96980.19;1653423;85;21324;-57
2022/01/06 00:55:19;;;;;;;3.92;2.25;;;;;;;1.58;75.59;96986.06;1685516;85;20975;-57
2022/01/06 00:57:46;;;;;;;5.53;2.40;;;;;;;1.58;75.13;96988.20;1685467;85;21015;-56
2022/01/06 01:00:14;;;;;;;6.40;2.27;;;;;;;1.61;75.23;96986.89;1685399;85;21455;-57
2022/01/06 01:02:41;;;;;;;4.60;2.45;;;;;;;1.62;75.29;96987.17;1737184;82;22083;-57
2022/01/06 01:05:08;;;;;;;5.80;2.72;;;;;;;1.65;74.88;96988.03;1736991;82;22081;-56
2022/01/06 01:07:35;;;;;;;5.67;2.33;;;;;;;1.69;75.19;96989.14;1715864;82;21006;-57
2022/01/06 01:10:04;;;;;;;8.05;2.70;;;;;;;1.72;74.90;96996.67;1712626;82;21409;-57
2022/01/06 01:12:30;;;;;;;5.08;2.92;;;;;;;1.76;74.76;97004.45;1733457;82;20998;-57
2022/01/06 01:15:05;;;;;;;5.03;2.22;;;;;;;1.80;75.18;97000.78;1737119;82;21020;-57
2022/01/06 01:17:27;;;;;;;4.15;1.85;;;;;;;1.82;75.07;96999.47;1736511;82;22159;-57
2022/01/06 01:19:54;;;;;;;3.25;2.20;;;;;;;1.85;75.14;97000.30;1735967;82;21001;-57
2022/01/06 01:22:21;;;;;;;4.62;2.35;;;;;;;1.87;74.70;96995.50;1712713;82;21537;-57
2022/01/06 01:24:48;;;;;;;3.42;1.87;;;;;;;1.89;74.58;96994.75;1712835;82;21478;-57
2022/01/06 01:27:21;;;;;;;8.23;2.52;;;;;;;1.91;74.49;96987.28;1737220;82;21024;-57
2022/01/06 01:30:09;;;;;;;3.92;1.98;;;;;;;1.90;74.28;96984.88;1736093;82;21783;-57
2022/01/06 01:32:32;;;;;;;6.33;3.20;;;;;;;1.92;74.18;96988.09;1715819;82;21066;-57
2022/01/06 01:35:00;;;;;;;10.90;4.10;;;;;;;1.93;74.37;96987.03;1713106;82;21027;-57
2022/01/06 01:37:25;;;;;;;5.25;2.58;;;;;;;1.93;73.70;96980.35;1727394;82;21005;-56
2022/01/06 01:39:52;;;;;;;5.95;3.50;;;;;;;1.93;73.54;96990.51;1718617;82;21489;-57
2022/01/06 01:42:19;;;;;;;4.90;2.00;;;;;;;1.93;73.92;96985.70;1707348;82;21419;-57
2022/01/06 01:44:48;;;;;;;5.85;2.67;;;;;;;1.92;74.14;96985.42;1712754;83;21027;-56
2022/01/06 01:47:16;;;;;;;9.50;3.58;;;;;;;1.90;73.71;96980.86;1724812;82;20990;-56
2022/01/06 01:49:56;;;;;;;3.30;1.77;;;;;;;1.90;73.36;96975.52;1707937;83;21123;-57
2022/01/06 01:52:21;;;;;;;4.85;2.25;;;;;;;1.87;73.57;96976.00;1724664;82;21014;-56
2022/01/06 01:54:47;;;;;;;4.35;2.65;;;;;;;1.82;73.68;96987.45;1737404;82;21390;-56
2022/01/06 01:57:14;;;;;;;6.22;2.25;;;;;;;1.80;74.08;96981.55;1737451;82;21048;-56
2022/01/06 01:59:41;;;;;;;4.78;2.98;;;;;;;1.78;73.78;96985.50;1737374;82;21179;-57
2022/01/06 02:02:08;;;;;;;4.65;3.22;;;;;;;1.75;73.75;96983.34;1737333;82;20988;-56
2022/01/06 02:04:35;;;;;;;6.35;2.30;;;;;;;1.75;73.83;96980.14;1737286;82;21028;-57
2022/01/06 02:07:03;;;;;;;4.83;1.95;;;;;;;1.72;73.76;96981.98;1730493;82;22240;-57
2022/01/06 02:09:30;;;;;;;4.90;2.12;;;;;;;1.72;73.71;96994.00;1737305;82;20957;-57
2022/01/06 02:11:57;;;;;;;8.23;1.87;;;;;;;1.69;73.54;96992.61;1737337;82;21064;-57
2022/01/06 02:14:27;;;;;;;5.53;2.87;;;;;;;1.69;73.67;96991.28;1737275;82;21016;-56
2022/01/06 02:16:55;;;;;;;3.37;1.72;;;;;;;1.69;73.57;96986.47;1737201;82;21441;-56
2022/01/06 02:19:21;;;;;;;4.15;2.25;;;;;;;1.66;73.43;96993.12;1737227;82;21953;-56
2022/01/06 02:21:48;;;;;;;4.87;2.17;;;;;;;1.66;73.46;96995.79;1728747;82;21062;-56
2022/01/06 02:24:15;;;;;;;5.17;2.05;;;;;;;1.65;73.23;96992.84;1712716;83;20971;-56
2022/01/06 02:26:42;;;;;;;4.78;2.25;;;;;;;1.66;73.04;96986.44;1712288;82;21023;-56
2022/01/06 02:29:10;;;;;;;5.12;2.62;;;;;;;1.65;73.55;96991.50;1712756;83;21069;-57
2022/01/06 02:31:43;;;;;;;6.25;2.30;;;;;;;1.64;73.46;97001.91;1730913;82;21380;-56
2022/01/06 02:34:10;;;;;;;5.40;2.62;;;;;;;1.64;73.35;97007.78;1736869;82;21008;-56
2022/01/06 02:36:37;;;;;;;6.42;2.30;;;;;;;1.64;73.30;97001.11;1718254;82;21070;-56
2022/01/06 02:39:04;;;;;;;9.98;3.67;;;;;;;1.64;73.41;96999.24;1719191;80;21060;-56
2022/01/06 02:41:32;;;;;;;4.78;2.50;;;;;;;1.62;73.61;96986.67;1736824;82;21000;-57
2022/01/06 02:44:00;;;;;;;3.90;2.83;;;;;;;1.64;73.46;96989.09;1737609;82;21416;-57
2022/01/06 02:46:27;;;;;;;4.78;2.83;;;;;;;1.69;73.18;96983.80;1729815;82;21020;-57
2022/01/06 02:48:54;;;;;;;5.17;3.58;;;;;;;1.64;73.28;96993.90;1716410;82;21469;-56
2022/01/06 02:51:21;;;;;;;5.47;2.62;;;;;;;1.70;72.75;96995.56;1714325;82;20967;-57
2022/01/06 02:53:52;;;;;;;5.00;2.33;;;;;;;1.70;73.19;96996.09;1712725;83;21570;-57
2022/01/06 02:56:20;;;;;;;4.55;2.77;;;;;;;1.74;72.94;96998.56;1712274;82;21006;-56
2022/01/06 02:58:46;;;;;;;6.92;2.90;;;;;;;1.78;72.99;96989.52;1712737;83;21010;-56
2022/01/06 03:01:13;;;;;;;3.05;1.50;;;;;;;1.78;73.07;96993.52;1724568;82;21500;-56
2022/01/06 03:03:40;;;;;;;5.28;1.87;;;;;;;1.83;73.03;96979.70;1712631;83;21396;-56
2022/01/06 03:06:07;;;;;;;9.85;2.10;;;;;;;1.80;72.92;96988.77;1725961;82;21013;-56
2022/01/06 03:08:34;;;;;;;4.12;2.15;;;;;;;1.82;73.20;96988.78;1737465;82;21283;-56
2022/01/06 03:11:01;;;;;;;5.30;2.37;;;;;;;1.83;73.08;96987.72;1731420;82;21058;-56
2022/01/06 03:13:28;;;;;;;3.05;2.22;;;;;;;1.85;73.06;96986.94;1712774;83;21008;-56
2022/01/06 03:15:56;;;;;;;6.40;2.00;;;;;;;1.84;72.89;96979.17;1723802;82;20977;-56
2022/01/06 03:18:23;;;;;;;4.50;2.40;;;;;;;1.87;73.20;96987.48;1737311;82;21071;-56
2022/01/06 03:20:49;;;;;;;4.33;1.90;;;;;;;1.87;73.20;96998.70;1736879;82;21991;-56
2022/01/06 03:23:17;;;;;;;2.83;1.98;;;;;;;1.90;73.28;96998.23;1714044;82;21002;-56
2022/01/06 03:25:44;;;;;;;7.17;3.02;;;;;;;1.89;73.33;97004.10;1712214;82;21447;-56
2022/01/06 03:28:11;;;;;;;5.42;2.15;;;;;;;1.91;73.67;97002.52;1734860;82;21001;-57
2022/01/06 03:30:39;;;;;;;3.65;2.10;;;;;;;1.91;73.83;97003.84;1736805;82;21095;-56
2022/01/06 03:33:06;;;;;;;3.45;2.33;;;;;;;1.91;73.64;96995.83;1737222;82;21417;-56
2022/01/06 03:35:33;;;;;;;9.08;2.98;;;;;;;1.90;73.66;96992.88;1736890;82;21068;-56
2022/01/06 03:38:00;;;;;;;6.42;3.00;;;;;;;1.91;73.61;96993.97;1737246;82;21044;-56
2022/01/06 03:40:27;;;;;;;5.53;2.10;;;;;;;1.90;73.14;96985.67;1707435;82;21019;-56
2022/01/06 03:42:53;;;;;;;3.08;1.30;;;;;;;1.90;73.19;96999.56;1731934;82;21051;-56
2022/01/06 03:45:20;;;;;;;5.42;2.10;;;;;;;1.94;73.22;97000.66;1737288;82;21386;-56
2022/01/06 03:47:47;;;;;;;4.85;1.80;;;;;;;1.92;72.93;97003.59;1746093;80;20982;-57
2022/01/06 03:50:15;;;;;;;3.85;2.10;;;;;;;1.92;72.96;97006.80;1761251;80;21481;-56
2022/01/06 03:52:42;;;;;;;5.30;2.80;;;;;;;1.92;72.96;97006.80;1717732;82;21543;-57
2022/01/06 03:55:13;;;;;;;5.53;3.33;;;;;;;1.94;73.07;97013.50;1712650;82;21001;-56
2022/01/06 03:57:40;;;;;;;2.42;1.32;;;;;;;1.97;72.84;97013.02;1729651;82;20981;-57
2022/01/06 04:00:10;;;;;;;5.42;1.70;;;;;;;2.03;72.29;96999.17;1737030;82;21021;-56
2022/01/06 04:02:37;;;;;;;3.72;1.95;;;;;;;1.99;72.51;97008.76;1720373;82;21010;-57
2022/01/06 04:05:05;;;;;;;2.65;1.65;;;;;;;2.01;72.20;97011.17;1715331;82;21420;-56
2022/01/06 04:07:33;;;;;;;1.70;1.52;;;;;;;2.02;72.64;97008.78;1721601;82;21550;-57
2022/01/06 04:10:00;;;;;;;4.90;1.92;;;;;;;2.04;72.49;97014.67;1712366;82;21573;-57
2022/01/06 04:12:27;;;;;;;5.05;2.00;;;;;;;2.05;72.41;97018.95;1712177;82;21503;-56
2022/01/06 04:14:54;;;;;;;5.65;2.55;;;;;;;2.05;72.36;97025.14;1712481;82;21046;-56
2022/01/06 04:17:21;;;;;;;4.47;1.77;;;;;;;2.07;72.61;97023.55;1723300;81;20992;-56
2022/01/06 04:19:48;;;;;;;4.58;0.90;;;;;;;2.08;72.37;97020.63;1732529;82;21055;-56
2022/01/06 04:22:15;;;;;;;7.67;1.80;;;;;;;2.11;72.67;97018.77;1723666;82;21280;-57
2022/01/06 04:24:42;;;;;;;4.55;2.45;;;;;;;2.15;72.27;97019.10;1737081;82;21147;-57
2022/01/06 04:27:09;;;;;;;4.53;2.20;;;;;;;2.11;72.67;97033.47;1729964;82;21063;-56
2022/01/06 04:29:35;;;;;;;7.30;1.95;;;;;;;2.10;72.54;97032.39;1736997;82;21548;-57
2022/01/06 04:32:03;;;;;;;3.75;2.00;;;;;;;2.10;72.56;97033.20;1729939;82;21008;-57
2022/01/06 04:34:30;;;;;;;4.20;2.20;;;;;;;2.10;72.34;97030.52;1737134;82;22109;-56
2022/01/06 04:36:59;;;;;;;7.50;3.75;;;;;;;2.09;72.37;97035.59;1727115;82;21011;-56
2022/01/06 04:39:26;;;;;;;8.35;2.83;;;;;;;2.09;72.08;97028.91;1712691;83;21078;-56
2022/01/06 04:41:53;;;;;;;4.45;2.17;;;;;;;2.11;72.43;97040.69;1712362;82;20974;-56
2022/01/06 04:44:20;;;;;;;2.25;1.50;;;;;;;2.11;72.39;97040.69;1712592;83;21010;-57
2022/01/06 04:46:47;;;;;;;4.75;1.52;;;;;;;2.12;72.61;97051.65;1725696;82;21004;-57
2022/01/06 04:49:14;;;;;;;5.05;2.20;;;;;;;2.13;72.66;97058.61;1767909;80;20994;-56
2022/01/06 04:51:41;;;;;;;3.70;1.35;;;;;;;2.14;72.33;97064.27;1730726;80;20992;-56
2022/01/06 04:54:08;;;;;;;4.83;2.10;;;;;;;2.16;72.26;97063.48;1737345;82;21004;-56
2022/01/06 04:56:37;;;;;;;3.65;1.92;;;;;;;2.16;72.35;97066.16;1736806;82;21417;-56
2022/01/06 04:59:05;;;;;;;6.28;2.35;;;;;;;2.21;72.18;97076.88;1737181;82;21560;-56
2022/01/06 05:01:32;;;;;;;3.77;1.90;;;;;;;2.18;72.39;97082.21;1724559;82;21467;-57
2022/01/06 05:04:00;;;;;;;4.25;1.82;;;;;;;2.19;72.45;97086.50;1736943;82;20996;-56
2022/01/06 05:06:26;;;;;;;3.00;1.77;;;;;;;2.22;72.45;97082.01;1720042;82;21058;-56
2022/01/06 05:08:53;;;;;;;4.65;1.55;;;;;;;2.22;72.69;97089.19;1712856;83;21439;-57
2022/01/06 05:11:20;;;;;;;4.03;1.92;;;;;;;2.23;72.58;97084.16;1712235;82;21538;-57
2022/01/06 05:13:47;;;;;;;4.80;1.95;;;;;;;2.24;72.66;97087.10;1712367;83;20987;-56
2022/01/06 05:16:14;;;;;;;2.67;1.62;;;;;;;2.25;72.32;97090.05;1712324;82;21066;-57
2022/01/06 05:18:41;;;;;;;4.33;2.20;;;;;;;2.26;72.30;97088.45;1707791;84;21045;-57
2022/01/06 05:21:08;;;;;;;5.37;2.77;;;;;;;2.29;72.72;97095.70;1698907;82;21015;-56
2022/01/06 05:23:35;;;;;;;3.62;2.33;;;;;;;2.29;72.66;97097.84;1712809;82;21404;-57
2022/01/06 05:26:03;;;;;;;3.35;1.70;;;;;;;2.32;72.64;97095.22;1712238;82;20987;-56
2022/01/06 05:28:29;;;;;;;6.70;2.60;;;;;;;2.30;72.71;97104.80;1712588;83;20995;-57
2022/01/06 05:30:56;;;;;;;4.83;2.10;;;;;;;2.32;72.91;97109.92;1717313;82;21079;-57
2022/01/06 05:33:24;;;;;;;6.95;3.92;;;;;;;2.34;72.98;97109.94;1713082;82;20983;-57
2022/01/06 05:35:51;;;;;;;6.20;2.12;;;;;;;2.34;72.52;97105.94;1712258;82;21291;-57
2022/01/06 05:38:18;;;;;;;8.83;2.50;;;;;;;2.37;72.50;97105.95;1712621;82;20978;-57
2022/01/06 05:40:45;;;;;;;3.98;2.02;;;;;;;2.35;72.56;97110.75;1721852;82;21465;-56
2022/01/06 05:43:12;;;;;;;4.45;2.20;;;;;;;2.34;72.67;97107.80;1737190;82;21045;-56
2022/01/06 05:45:40;;;;;;;3.72;1.85;;;;;;;2.33;72.55;97104.85;1735092;82;21008;-57
2022/01/06 05:48:06;;;;;;;5.15;1.98;;;;;;;2.33;72.60;97104.32;1736080;80;21435;-57
2022/01/06 05:50:33;;;;;;;6.40;3.02;;;;;;;2.33;72.59;97105.66;1752570;80;21020;-56
2022/01/06 05:53:00;;;;;;;4.53;1.87;;;;;;;2.33;72.54;97106.99;1716903;81;21016;-56
2022/01/06 05:55:27;;;;;;;2.45;1.25;;;;;;;2.33;72.70;97105.66;1721270;82;21459;-57
2022/01/06 05:57:54;;;;;;;6.55;1.60;;;;;;;2.37;72.60;97105.42;1707739;82;20998;-57
2022/01/06 06:00:21;;;;;;;3.65;1.98;;;;;;;2.33;72.61;97109.66;1716879;80;21491;-57
2022/01/06 06:02:48;;;;;;;5.75;2.00;;;;;;;2.35;72.71;97118.77;1730169;82;21008;-56
2022/01/06 06:05:15;;;;;;;6.00;2.10;;;;;;;2.36;72.91;97115.03;1721442;82;20997;-56
2022/01/06 06:07:41;;;;;;;3.17;1.67;;;;;;;2.39;72.75;97114.53;1727883;82;21417;-56
2022/01/06 06:10:09;;;;;;;7.45;2.40;;;;;;;2.37;72.72;97120.13;1737212;82;21021;-57
2022/01/06 06:12:35;;;;;;;3.92;2.27;;;;;;;2.40;72.30;97116.17;1703382;82;22009;-56
2022/01/06 06:15:03;;;;;;;10.40;2.67;;;;;;;2.37;72.58;97113.45;1694973;82;21477;-57
2022/01/06 06:17:30;;;;;;;2.80;1.82;;;;;;;2.36;72.62;97113.17;1736994;82;21454;-57
2022/01/06 06:19:57;;;;;;;6.83;2.33;;;;;;;2.37;72.75;97115.31;1737123;82;21032;-56
2022/01/06 06:22:24;;;;;;;3.08;1.95;;;;;;;2.37;72.47;97113.98;1737081;82;21015;-57
2022/01/06 06:24:51;;;;;;;4.33;1.90;;;;;;;2.38;72.35;97116.39;1737076;82;21409;-56
2022/01/06 06:27:17;;;;;;;3.22;1.87;;;;;;;2.39;72.78;97122.02;1737053;82;21004;-57
2022/01/06 06:29:44;;;;;;;2.45;1.37;;;;;;;2.41;72.70;97123.12;1737369;82;21060;-56
2022/01/06 06:32:11;;;;;;;4.72;2.50;;;;;;;2.41;72.75;97126.61;1736806;82;21482;-56
2022/01/06 06:34:38;;;;;;;4.17;3.60;;;;;;;2.39;72.86;97122.55;1737260;82;21461;-57
2022/01/06 06:37:05;;;;;;;5.75;2.83;;;;;;;2.40;72.56;97129.55;1737106;82;22016;-56
2022/01/06 06:39:32;;;;;;;5.00;2.47;;;;;;;2.39;72.76;97131.91;1737206;82;21012;-57
2022/01/06 06:41:59;;;;;;;5.03;3.10;;;;;;;2.40;72.79;97138.90;1721825;82;21054;-57
2022/01/06 06:44:26;;;;;;;7.42;2.55;;;;;;;2.42;72.77;97138.92;1712687;83;21011;-57
2022/01/06 06:46:53;;;;;;;6.40;3.22;;;;;;;2.40;72.62;97139.70;1726928;82;21020;-56
2022/01/06 06:49:20;;;;;;;5.97;3.00;;;;;;;2.42;72.77;97138.92;1711107;82;21004;-56
2022/01/06 06:51:47;;;;;;;3.15;2.30;;;;;;;2.42;72.47;97138.92;1717182;82;21016;-57
2022/01/06 06:54:14;;;;;;;5.17;2.30;;;;;;;2.44;72.52;97139.48;1737213;82;20969;-57
2022/01/06 06:56:42;;;;;;;6.17;2.35;;;;;;;2.44;72.35;97138.14;1730036;82;21007;-56
2022/01/06 06:59:09;;;;;;;3.70;2.17;;;;;;;2.47;72.40;97140.83;1712903;82;21566;-57
2022/01/06 07:01:36;;;;;;;10.75;2.65;;;;;;;2.49;72.33;97147.57;1718060;82;21303;-56
2022/01/06 07:04:03;;;;;;;6.47;3.20;;;;;;;2.46;72.35;97140.03;1737187;82;21000;-57
2022/01/06 07:06:29;;;;;;;2.87;2.33;;;;;;;2.48;72.38;97140.61;1725463;82;21010;-57
2022/01/06 07:08:56;;;;;;;8.55;3.12;;;;;;;2.49;72.56;97139.55;1712299;83;21443;-57
2022/01/06 07:11:24;;;;;;;4.45;2.47;;;;;;;2.48;72.49;97140.61;1713758;81;21004;-56
2022/01/06 07:13:50;;;;;;;6.20;2.92;;;;;;;2.50;72.77;97145.70;1707798;84;21293;-57
2022/01/06 07:16:17;;;;;;;6.85;2.67;;;;;;;2.50;72.50;97151.05;1704414;82;21022;-57
2022/01/06 07:18:44;;;;;;;6.28;2.45;;;;;;;2.50;72.76;97154.53;1712798;82;21534;-57
2022/01/06 07:21:11;;;;;;;7.62;2.22;;;;;;;2.49;72.63;97159.61;1719175;82;21007;-56
2022/01/06 07:23:38;;;;;;;4.72;2.95;;;;;;;2.51;72.91;97160.69;1712700;83;21023;-57
2022/01/06 07:26:05;;;;;;;2.77;2.12;;;;;;;2.53;72.90;97161.24;1712405;82;21265;-57
2022/01/06 07:28:32;;;;;;;7.55;3.90;;;;;;;2.52;73.04;97156.42;1712373;83;21015;-56
2022/01/06 07:30:59;;;;;;;8.88;3.30;;;;;;;2.52;73.15;97164.98;1717445;82;21012;-57
2022/01/06 07:33:26;;;;;;;9.83;3.00;;;;;;;2.55;73.06;97160.45;1737162;82;21009;-57
2022/01/06 07:35:53;;;;;;;7.45;2.58;;;;;;;2.50;73.13;97164.42;1726037;82;21471;-57
2022/01/06 07:38:20;;;;;;;6.95;2.40;;;;;;;2.50;73.12;97161.22;1736168;82;21408;-57
2022/01/06 07:40:47;;;;;;;5.42;3.25;;;;;;;2.49;73.09;97162.81;1736871;82;21012;-56
2022/01/06 07:43:14;;;;;;;4.35;2.60;;;;;;;2.49;73.29;97168.97;1737116;82;21021;-57
2022/01/06 07:45:41;;;;;;;5.92;3.12;;;;;;;2.49;73.43;97167.63;1734810;82;21477;-57
2022/01/06 07:48:16;;;;;;;4.53;2.42;;;;;;;2.50;73.48;97168.44;1722850;82;21383;-57
2022/01/06 07:50:36;;;;;;;8.00;2.98;;;;;;;2.49;73.54;97174.31;1706222;82;21040;-56
2022/01/06 07:53:03;;;;;;;6.62;3.47;;;;;;;2.52;73.69;97183.17;1733397;82;20949;-56
2022/01/06 07:55:30;;;;;;;12.28;3.10;;;;;;;2.52;73.62;97175.14;1736956;82;21068;-57
2022/01/06 07:57:58;;;;;;;6.72;2.37;;;;;;;2.54;73.74;97182.91;1732551;82;21002;-56
2022/01/06 08:00:25;;;;;;;6.42;3.55;;;;;;;2.54;73.97;97192.27;1737200;82;21079;-56
2022/01/06 08:02:52;;;;;;;6.62;3.30;;;;;;;2.54;73.94;97189.07;1737159;82;21368;-57
2022/01/06 08:05:23;;;;;;;6.12;2.95;;;;;;;2.57;74.15;97196.34;1736849;82;21654;-57
2022/01/06 08:07:49;;;;;;;7.08;2.75;;;;;;;2.58;74.33;97195.28;1718540;82;21050;-56
2022/01/06 08:10:16;;;;;;;5.58;2.50;;;;;;;2.57;74.56;97206.51;1712639;82;21003;-56
2022/01/06 08:12:43;;;;;;;5.12;2.60;;;;;;;2.52;75.34;97202.42;1715009;80;20980;-57
2022/01/06 08:15:10;;;;;;;7.67;3.50;;;;;;;2.49;75.60;97206.41;1712559;82;21382;-56
2022/01/06 08:17:37;;;;;;;7.30;3.05;;;;;;;2.49;75.65;97210.95;1734025;82;20957;-56
2022/01/06 08:20:07;;;;;;;10.82;3.70;;;;;;;2.49;75.60;97214.96;1734357;82;21504;-56
2022/01/06 08:22:35;;;;;;;7.47;3.85;;;;;;;2.49;75.82;97218.44;1712319;82;20967;-56
2022/01/06 08:25:05;;;;;;;6.60;5.20;;;;;;;2.50;76.16;97220.59;1712880;82;21022;-60
2022/01/06 08:27:32;;;;;;;8.03;3.67;;;;;;;2.54;76.19;97225.70;1712017;82;22047;-57
2022/01/06 08:29:59;;;;;;;6.37;4.00;;;;;;;2.52;76.41;97221.14;1712468;82;21400;-57
2022/01/06 08:32:26;;;;;;;10.13;4.47;;;;;;;2.48;77.11;97221.38;1732184;82;21021;-57
2022/01/06 08:34:53;;;;;;;9.45;4.15;;;;;;;2.47;76.89;97231.23;1737145;82;21088;-56
2022/01/06 08:37:20;;;;;;;8.70;4.95;;;;;;;2.47;77.14;97234.44;1736992;82;21075;-57
2022/01/06 08:39:46;;;;;;;10.55;5.45;;;;;;;2.47;77.04;97239.25;1737127;82;21403;-56
2022/01/06 08:42:13;;;;;;;7.75;4.65;;;;;;;2.49;77.12;97239.84;1736530;82;21013;-57
2022/01/06 08:44:41;;;;;;;7.65;4.40;;;;;;;2.52;77.39;97245.21;1737095;82;22014;-56
2022/01/06 08:47:09;;;;;;;7.77;4.57;;;;;;;2.55;77.40;97255.41;1720368;82;21062;-56
2022/01/06 08:49:36;;;;;;;8.85;5.28;;;;;;;2.58;77.58;97256.80;1773350;80;21030;-56
2022/01/06 08:52:04;;;;;;;8.28;3.40;;;;;;;2.56;77.91;97258.36;1664532;84;21352;-56
2022/01/06 08:54:31;;;;;;;10.15;3.77;;;;;;;2.57;77.98;97260.00;1732587;82;21528;-56
2022/01/06 08:56:58;;;;;;;7.05;3.60;;;;;;;2.60;78.12;97261.37;1726791;82;21058;-57
2022/01/06 08:59:25;;;;;;;16.23;5.42;;;;;;;2.60;78.12;97259.50;1712536;83;21014;-56
2022/01/06 09:01:52;;;;;;;8.88;4.60;;;;;;;2.53;78.38;97256.99;1719181;82;20983;-57
2022/01/06 09:04:21;;;;;;;13.03;4.85;;;;;;;2.53;78.42;97267.69;1712633;82;21329;-56
2022/01/06 09:06:48;;;;;;;7.55;4.10;;;;;;;2.55;78.78;97268.25;1727346;82;21024;-56
2022/01/06 09:09:16;;;;;;;14.00;7.03;;;;;;;2.62;78.60;97273.43;1737262;82;21449;-57
2022/01/06 09:11:42;;;;;;;7.40;4.30;;;;;;;2.69;78.81;97267.38;1729766;81;21435;-57
2022/01/06 09:14:10;;;;;;;15.15;7.12;;;;;;;2.77;78.69;97269.62;1712632;82;21379;-56
2022/01/06 09:16:38;;;;;;;20.72;11.53;;;;;;;2.76;78.28;97269.35;1730471;82;21579;-56
2022/01/06 09:19:05;;;;;;;49.17;22.53;;;;;;;2.75;78.40;97274.95;1737309;82;21445;-57
2022/01/06 09:21:31;;;;;;;62.27;25.90;;;;;;;2.73;78.54;97275.17;1736755;82;21506;-56
2022/01/06 09:23:59;;;;;;;118.60;42.98;;;;;;;2.70;78.66;97270.33;1737253;82;21071;-56
2022/01/06 09:26:26;;;;;;;71.62;29.92;;;;;;;2.71;78.51;97271.95;1737098;82;21025;-57
2022/01/06 09:28:53;;;;;;;98.97;40.73;;;;;;;2.76;78.62;97272.03;1737136;82;22052;-56
2022/01/06 09:31:20;;;;;;;49.93;19.32;;;;;;;2.80;78.81;97270.46;1736788;82;21468;-56
2022/01/06 09:33:47;;;;;;;84.17;31.25;;;;;;;2.83;78.75;97275.34;1737177;82;21004;-56
2022/01/06 09:36:14;;;;;;;73.17;27.25;;;;;;;2.82;78.71;97272.91;1729560;82;21071;-56
2022/01/06 09:38:42;;;;;;;63.73;28.52;;;;;;;2.81;78.61;97276.62;1712648;83;21053;-56
2022/01/06 09:41:10;;;;;;;34.27;14.38;;;;;;;2.76;78.89;97273.89;1712539;82;21525;-56
2022/01/06 09:43:36;;;;;;;52.45;22.02;;;;;;;2.78;78.72;97279.27;1712642;83;20971;-56
2022/01/06 09:46:06;;;;;;;28.83;13.78;;;;;;;2.78;78.85;97275.78;1718216;82;21575;-56
2022/01/06 09:48:35;;;;;;;91.67;32.90;;;;;;;2.85;78.77;97273.75;1721536;82;20973;-56
2022/01/06 09:51:02;;;;;;;49.93;17.00;;;;;;;2.87;78.82;97272.16;1716919;82;21021;-56
2022/01/06 09:53:29;;;;;;;54.15;17.40;;;;;;;2.91;78.49;97270.09;1737087;82;21047;-56
2022/01/06 09:55:56;;;;;;;151.85;44.95;;;;;;;2.93;78.49;97267.96;1724810;82;21000;-56
2022/01/06 09:58:25;;;;;;;86.47;33.83;;;;;;;2.95;78.48;97260.48;1737095;82;22104;-56
2022/01/06 10:00:53;;;;;;;189.57;67.53;;;;;;;3.01;78.49;97257.35;1737031;82;20985;-56
2022/01/06 10:03:20;;;;;;;89.47;35.13;;;;;;;3.11;78.33;97258.80;1691426;82;21024;-56
2022/01/06 10:05:51;;;;;;;86.30;33.05;;;;;;;3.24;78.27;97257.59;1696366;82;22068;-56
2022/01/06 10:08:28;;;;;;;138.37;48.15;;;;;;;3.26;78.20;97266.21;1737363;82;21072;-57
2022/01/06 10:11:11;;;;;;;513.35;190.92;;;;;;;3.33;77.67;97265.46;1737085;82;21059;-57
2022/01/06 10:13:39;;;;;;;322.80;113.80;;;;;;;3.31;77.99;97275.09;1737214;82;21024;-56
2022/01/06 10:16:16;;;;;;;100.55;39.90;;;;;;;3.33;77.93;97274.33;1730780;82;20987;-56
2022/01/06 10:19:01;;;;;;;76.47;30.37;;;;;;;3.36;77.27;97280.52;1712434;82;21004;-56
2022/01/06 10:21:38;;;;;;;132.90;45.83;;;;;;;3.39;77.16;97278.66;1722470;82;21043;-56
2022/01/06 10:24:13;;;;;;;102.82;37.38;;;;;;;3.45;77.13;97288.91;1705234;84;21012;-56
2022/01/06 10:27:00;;;;;;;111.90;39.90;;;;;;;3.46;77.00;97285.17;1680434;84;21017;-56
2022/01/06 10:29:29;;;;;;;519.55;215.30;;;;;;;3.53;77.26;97278.28;1710186;83;21483;-56
2022/01/06 10:32:05;;;;;;;;;;;;;;;3.56;77.35;97281.25;1729876;82;21319;-56
2022/01/06 10:34:34;;;;;;;82.80;35.65;;;;;;;3.57;77.32;97281.52;1737126;82;20189;-56
2022/01/06 10:37:01;;;;;;;115.90;56.80;;;;;;;3.66;77.28;97285.89;1737185;82;21000;-56
2022/01/06 10:39:44;;;;;;;25.50;12.05;;;;;;;3.76;77.39;97280.66;1737146;82;21334;-57
2022/01/06 10:42:12;;;;;;;39.25;23.52;;;;;;;3.78;76.79;97279.06;1737278;82;21040;-57
2022/01/06 10:45:00;;;;;;;13.78;8.28;;;;;;;3.76;77.06;97277.98;1736988;82;21469;-57
2022/01/06 10:47:36;;;;;;;12.93;7.37;;;;;;;3.88;76.68;97279.16;1729010;80;20999;-56
2022/01/06 10:50:14;;;;;;;13.85;7.35;;;;;;;3.96;76.60;97276.81;1701786;83;21490;-56
2022/01/06 10:52:45;;;;;;;71.35;29.12;;;;;;;4.04;76.08;97266.69;1651557;85;21518;-56
2022/01/06 10:55:19;;;;;;;197.02;74.72;;;;;;;3.98;76.10;97268.52;1715614;82;21026;-56
2022/01/06 10:58:02;;;;;;;293.93;103.47;;;;;;;4.00;76.25;97271.73;1717857;82;21026;-56
2022/01/06 11:00:35;;;;;;;146.50;53.15;;;;;;;3.99;76.39;97270.13;1717659;82;21450;-57
2022/01/06 11:03:09;;;;;;;77.15;32.08;;;;;;;3.94;76.04;97279.48;1701982;82;21066;-56
2022/01/06 11:05:37;;;;;;;10.10;5.30;;;;;;;3.73;74.62;97314.64;1702570;82;21054;-57
2022/01/06 11:08:05;;;;;;;7.53;4.25;;;;;;;3.03;79.01;97320.80;1733732;82;21017;-57
2022/01/06 11:10:35;;;;;;;10.15;5.65;;;;;;;1.82;85.23;97337.94;1736335;82;21885;-57
2022/01/06 11:13:02;;;;;;;12.05;6.72;;;;;;;1.12;88.98;97345.67;1733254;82;21524;-57
2022/01/06 11:15:29;;;;;;;15.00;6.55;;;;;;;0.97;92.37;97351.50;1736919;82;21422;-57
2022/01/06 11:17:56;;;;;;;15.13;7.20;;;;;;;0.70;93.15;97351.70;1737079;82;21090;-58
2022/01/06 11:20:25;;;;;;;8.15;4.70;;;;;;;0.68;93.12;97361.77;1731361;82;21030;-58
2022/01/06 11:22:54;;;;;;;15.70;6.67;;;;;;;0.70;91.55;97367.70;1736969;82;21569;-58
2022/01/06 11:25:36;;;;;;;8.60;4.12;;;;;;;0.70;90.27;97367.70;1736978;82;20981;-58
2022/01/06 11:28:09;;;;;;;6.67;3.85;;;;;;;0.71;89.98;97368.80;1737156;82;20996;-57
2022/01/06 11:30:47;;;;;;;5.15;3.08;;;;;;;0.71;88.77;97371.47;1729700;82;21439;-57
2022/01/06 11:33:15;;;;;;;3.85;2.55;;;;;;;0.75;88.65;97379.80;1736660;82;21520;-57
2022/01/06 11:35:56;;;;;;;7.60;4.55;;;;;;;0.75;88.40;97374.47;1734703;82;21662;-57
2022/01/06 11:38:26;;;;;;;5.90;3.85;;;;;;;0.70;90.09;97382.38;1720743;81;21393;-57
2022/01/06 11:41:08;;;;;;;6.95;5.22;;;;;;;0.69;89.36;97386.08;1722331;82;20995;-57
2022/01/06 11:43:40;;;;;;;10.13;5.40;;;;;;;0.68;88.01;97389.24;1712366;83;21257;-57
2022/01/06 11:46:07;;;;;;;8.33;5.53;;;;;;;0.68;88.25;97390.58;1712448;82;21463;-58
2022/01/06 11:48:52;;;;;;;19.15;10.38;;;;;;;0.71;88.73;97392.80;1747020;80;21509;-57
2022/01/06 11:51:30;;;;;;;13.78;7.58;;;;;;;0.74;88.53;97405.66;1663459;83;21024;-57
2022/01/06 11:53:58;;;;;;;13.98;8.55;;;;;;;0.75;88.36;97404.61;1656406;86;21014;-57
2022/01/06 11:56:25;;;;;;;19.62;9.58;;;;;;;0.79;87.42;97409.79;1699096;82;21021;-57